Details for Ryanair at LIRF




Go Back


Latest METAR
Local Time

LIRF 240750Z 29004KT 230V360 CAVOK 21/16 Q1017 NOSIG

24/05/2018, 09:59:43

Description
Results
Ryanair Logo
Number of Pilots based at LIRF
0 Pilots Based here
Number of Ryanair Flights Departed from LIRF
5 Flights Departed
Number of Ryanair Flights Arrived at LIRF
3 Flights Arrived
Number of Ryanair Schedules Departing from LIRF
63 Schedules
Number of Ryanair Schedules Arriving at LIRF
62 Schedules
Number of Ryanair Schedules Departing from LIRF availible today
29 Schedules Today
Number of Ryanair Schedules Arriving at LIRF availible today
31 Schedules Today
Average Landing Rate at LIRF
-188 fpm
Ryanair Average Landing Rate at LIRF
-152 fpm
Total Fuel Purchased at LIRF by Ryanair
40,929.91 kgs / 90,234.08 lbs

Pilots Based at LIRF


Pilot ID
Pilot Name
Pilot Rank
No. of Flights
No. of Flying Hours
There are no pilots assigned to this hub!   Will you be the first?
Content